sensor_id;sensor_type;location;lat;lon;timestamp;temperature;humidity
35523;DHT22;61478;50.820;4.330;2023-04-10T00:01:13;12.70;99.90
35523;DHT22;61478;50.820;4.330;2023-04-10T00:03:39;12.60;99.90
35523;DHT22;61478;50.820;4.330;2023-04-10T00:06:06;12.50;99.90
35523;DHT22;61478;50.820;4.330;2023-04-10T00:08:32;12.50;99.90
35523;DHT22;61478;50.820;4.330;2023-04-10T00:10:57;12.40;99.90
35523;DHT22;61478;50.820;4.330;2023-04-10T00:13:23;12.60;99.90
35523;DHT22;61478;50.820;4.330;2023-04-10T00:15:49;12.60;99.90
35523;DHT22;61478;50.820;4.330;2023-04-10T00:18:15;12.50;99.90
35523;DHT22;61478;50.820;4.330;2023-04-10T00:20:41;12.40;99.90
35523;DHT22;61478;50.820;4.330;2023-04-10T00:23:08;12.50;99.90
35523;DHT22;61478;50.820;4.330;2023-04-10T00:25:34;12.60;99.90
35523;DHT22;61478;50.820;4.330;2023-04-10T00:27:59;12.70;99.90
35523;DHT22;61478;50.820;4.330;2023-04-10T00:30:25;12.60;99.90
35523;DHT22;61478;50.820;4.330;2023-04-10T00:32:51;12.60;99.90
35523;DHT22;61478;50.820;4.330;2023-04-10T00:35:17;12.70;99.90
35523;DHT22;61478;50.820;4.330;2023-04-10T00:37:43;12.70;99.90
35523;DHT22;61478;50.820;4.330;2023-04-10T00:40:09;12.80;99.90
35523;DHT22;61478;50.820;4.330;2023-04-10T00:42:35;12.90;99.90
35523;DHT22;61478;50.820;4.330;2023-04-10T00:45:01;12.70;99.90
35523;DHT22;61478;50.820;4.330;2023-04-10T00:47:27;12.60;99.90
35523;DHT22;61478;50.820;4.330;2023-04-10T00:49:53;12.60;99.90
35523;DHT22;61478;50.820;4.330;2023-04-10T00:52:19;12.50;99.90
35523;DHT22;61478;50.820;4.330;2023-04-10T00:54:45;12.50;99.90
35523;DHT22;61478;50.820;4.330;2023-04-10T00:57:12;12.40;99.90
35523;DHT22;61478;50.820;4.330;2023-04-10T00:59:38;12.30;99.90
35523;DHT22;61478;50.820;4.330;2023-04-10T01:02:03;12.40;99.90
35523;DHT22;61478;50.820;4.330;2023-04-10T01:04:30;12.40;99.90
35523;DHT22;61478;50.820;4.330;2023-04-10T01:12:10;12.20;99.90
35523;DHT22;61478;50.820;4.330;2023-04-10T01:17:50;12.20;99.90
35523;DHT22;61478;50.820;4.330;2023-04-10T01:20:29;12.10;99.90
35523;DHT22;61478;50.820;4.330;2023-04-10T01:25:59;11.90;99.90
35523;DHT22;61478;50.820;4.330;2023-04-10T01:28:36;11.90;99.90
35523;DHT22;61478;50.820;4.330;2023-04-10T01:31:03;11.90;99.90
35523;DHT22;61478;50.820;4.330;2023-04-10T01:33:46;11.80;99.90
35523;DHT22;61478;50.820;4.330;2023-04-10T01:36:18;11.70;99.90
35523;DHT22;61478;50.820;4.330;2023-04-10T01:38:46;11.60;99.90
35523;DHT22;61478;50.820;4.330;2023-04-10T01:41:14;11.70;99.90
35523;DHT22;61478;50.820;4.330;2023-04-10T01:43:41;11.80;99.90
35523;DHT22;61478;50.820;4.330;2023-04-10T01:46:07;11.70;99.90
35523;DHT22;61478;50.820;4.330;2023-04-10T01:48:34;11.60;99.90
35523;DHT22;61478;50.820;4.330;2023-04-10T01:51:02;11.70;99.90
35523;DHT22;61478;50.820;4.330;2023-04-10T01:53:30;11.70;99.90
35523;DHT22;61478;50.820;4.330;2023-04-10T01:55:56;11.70;99.90
35523;DHT22;61478;50.820;4.330;2023-04-10T01:58:22;11.60;99.90
35523;DHT22;61478;50.820;4.330;2023-04-10T02:00:49;11.60;99.90
35523;DHT22;61478;50.820;4.330;2023-04-10T02:03:15;11.50;99.90
35523;DHT22;61478;50.820;4.330;2023-04-10T02:08:37;11.40;99.90
35523;DHT22;61478;50.820;4.330;2023-04-10T02:13:34;11.50;99.90
35523;DHT22;61478;50.820;4.330;2023-04-10T02:16:06;11.50;99.90
35523;DHT22;61478;50.820;4.330;2023-04-10T02:18:36;11.50;99.90
35523;DHT22;61478;50.820;4.330;2023-04-10T02:21:03;11.50;99.90
35523;DHT22;61478;50.820;4.330;2023-04-10T02:23:29;11.50;99.90
35523;DHT22;61478;50.820;4.330;2023-04-10T02:25:55;11.50;99.90
35523;DHT22;61478;50.820;4.330;2023-04-10T02:28:24;11.40;99.90
35523;DHT22;61478;50.820;4.330;2023-04-10T02:30:50;11.40;99.90
35523;DHT22;61478;50.820;4.330;2023-04-10T02:33:16;11.30;99.90
35523;DHT22;61478;50.820;4.330;2023-04-10T02:35:42;11.40;99.90
35523;DHT22;61478;50.820;4.330;2023-04-10T02:38:08;11.40;99.90
35523;DHT22;61478;50.820;4.330;2023-04-10T02:40:34;11.30;99.90
35523;DHT22;61478;50.820;4.330;2023-04-10T02:43:00;11.30;99.90
35523;DHT22;61478;50.820;4.330;2023-04-10T02:45:26;11.30;99.90
35523;DHT22;61478;50.820;4.330;2023-04-10T02:47:52;11.30;99.90
35523;DHT22;61478;50.820;4.330;2023-04-10T02:50:18;11.10;99.90
35523;DHT22;61478;50.820;4.330;2023-04-10T02:52:43;11.30;99.90
35523;DHT22;61478;50.820;4.330;2023-04-10T02:55:09;11.40;99.90
35523;DHT22;61478;50.820;4.330;2023-04-10T02:57:35;11.30;99.90
35523;DHT22;61478;50.820;4.330;2023-04-10T03:00:03;11.30;99.90
35523;DHT22;61478;50.820;4.330;2023-04-10T03:02:29;11.40;99.90
35523;DHT22;61478;50.820;4.330;2023-04-10T03:04:56;11.40;99.90
35523;DHT22;61478;50.820;4.330;2023-04-10T03:07:22;11.30;99.90
35523;DHT22;61478;50.820;4.330;2023-04-10T03:09:47;11.10;99.90
35523;DHT22;61478;50.820;4.330;2023-04-10T03:12:13;11.00;99.90
35523;DHT22;61478;50.820;4.330;2023-04-10T03:14:39;10.90;99.90
35523;DHT22;61478;50.820;4.330;2023-04-10T03:17:05;11.00;99.90
35523;DHT22;61478;50.820;4.330;2023-04-10T03:19:32;11.00;99.90
35523;DHT22;61478;50.820;4.330;2023-04-10T03:21:58;11.00;99.90
35523;DHT22;61478;50.820;4.330;2023-04-10T03:24:24;11.00;99.90
35523;DHT22;61478;50.820;4.330;2023-04-10T03:26:51;10.80;99.90
35523;DHT22;61478;50.820;4.330;2023-04-10T03:29:17;10.70;99.90
35523;DHT22;61478;50.820;4.330;2023-04-10T03:31:43;10.60;99.90
35523;DHT22;61478;50.820;4.330;2023-04-10T03:34:10;10.60;99.90
35523;DHT22;61478;50.820;4.330;2023-04-10T03:36:36;10.60;99.90
35523;DHT22;61478;50.820;4.330;2023-04-10T03:39:01;10.60;99.90
35523;DHT22;61478;50.820;4.330;2023-04-10T03:41:27;10.70;99.90
35523;DHT22;61478;50.820;4.330;2023-04-10T03:43:53;10.80;99.90
35523;DHT22;61478;50.820;4.330;2023-04-10T03:46:19;10.80;99.90
35523;DHT22;61478;50.820;4.330;2023-04-10T03:48:47;10.80;99.90
35523;DHT22;61478;50.820;4.330;2023-04-10T03:51:14;10.90;99.90
35523;DHT22;61478;50.820;4.330;2023-04-10T03:53:40;11.00;99.90
35523;DHT22;61478;50.820;4.330;2023-04-10T03:56:07;11.00;99.90
35523;DHT22;61478;50.820;4.330;2023-04-10T03:58:33;11.10;99.90
35523;DHT22;61478;50.820;4.330;2023-04-10T04:00:59;11.10;99.90
35523;DHT22;61478;50.820;4.330;2023-04-10T04:03:25;11.00;99.90
35523;DHT22;61478;50.820;4.330;2023-04-10T04:05:51;10.90;99.90
35523;DHT22;61478;50.820;4.330;2023-04-10T04:08:16;10.90;99.90
35523;DHT22;61478;50.820;4.330;2023-04-10T04:10:42;10.70;99.90
35523;DHT22;61478;50.820;4.330;2023-04-10T04:13:08;10.70;99.90
35523;DHT22;61478;50.820;4.330;2023-04-10T04:15:34;10.70;99.90
35523;DHT22;61478;50.820;4.330;2023-04-10T04:18:00;10.60;99.90
35523;DHT22;61478;50.820;4.330;2023-04-10T04:20:25;10.60;99.90
35523;DHT22;61478;50.820;4.330;2023-04-10T04:22:51;10.50;99.90
35523;DHT22;61478;50.820;4.330;2023-04-10T04:25:17;10.40;99.90
35523;DHT22;61478;50.820;4.330;2023-04-10T04:27:44;10.50;99.90
35523;DHT22;61478;50.820;4.330;2023-04-10T04:30:10;10.60;99.90
35523;DHT22;61478;50.820;4.330;2023-04-10T04:32:36;10.70;99.90
35523;DHT22;61478;50.820;4.330;2023-04-10T04:35:02;10.70;99.90
35523;DHT22;61478;50.820;4.330;2023-04-10T04:37:29;10.70;99.90
35523;DHT22;61478;50.820;4.330;2023-04-10T04:39:55;10.80;99.90
35523;DHT22;61478;50.820;4.330;2023-04-10T04:42:21;10.80;99.90
35523;DHT22;61478;50.820;4.330;2023-04-10T04:44:48;10.70;99.90
35523;DHT22;61478;50.820;4.330;2023-04-10T04:47:14;10.70;99.90
35523;DHT22;61478;50.820;4.330;2023-04-10T04:49:40;10.70;99.90
35523;DHT22;61478;50.820;4.330;2023-04-10T04:52:06;10.70;99.90
35523;DHT22;61478;50.820;4.330;2023-04-10T04:54:33;10.70;99.90
35523;DHT22;61478;50.820;4.330;2023-04-10T04:56:59;10.80;99.90
35523;DHT22;61478;50.820;4.330;2023-04-10T04:59:26;10.70;99.90
35523;DHT22;61478;50.820;4.330;2023-04-10T05:01:52;10.80;99.90
35523;DHT22;61478;50.820;4.330;2023-04-10T05:04:18;10.80;99.90
35523;DHT22;61478;50.820;4.330;2023-04-10T05:06:45;10.70;99.90
35523;DHT22;61478;50.820;4.330;2023-04-10T05:09:11;10.80;99.90
35523;DHT22;61478;50.820;4.330;2023-04-10T05:11:37;10.70;99.90
35523;DHT22;61478;50.820;4.330;2023-04-10T05:14:03;10.80;99.90
35523;DHT22;61478;50.820;4.330;2023-04-10T05:16:28;10.70;99.90
35523;DHT22;61478;50.820;4.330;2023-04-10T05:18:55;10.80;99.90
35523;DHT22;61478;50.820;4.330;2023-04-10T05:21:21;10.80;99.90
35523;DHT22;61478;50.820;4.330;2023-04-10T05:23:46;10.80;99.90
35523;DHT22;61478;50.820;4.330;2023-04-10T05:26:12;10.80;99.90
35523;DHT22;61478;50.820;4.330;2023-04-10T05:28:38;10.90;99.90
35523;DHT22;61478;50.820;4.330;2023-04-10T05:31:04;10.90;99.90
35523;DHT22;61478;50.820;4.330;2023-04-10T05:33:30;10.90;99.90
35523;DHT22;61478;50.820;4.330;2023-04-10T05:35:56;10.90;99.90
35523;DHT22;61478;50.820;4.330;2023-04-10T05:38:22;10.70;99.90
35523;DHT22;61478;50.820;4.330;2023-04-10T05:40:49;10.80;99.90
35523;DHT22;61478;50.820;4.330;2023-04-10T05:43:14;10.80;99.90
35523;DHT22;61478;50.820;4.330;2023-04-10T05:45:43;10.80;99.90
35523;DHT22;61478;50.820;4.330;2023-04-10T05:48:09;10.90;99.90
35523;DHT22;61478;50.820;4.330;2023-04-10T05:50:35;10.80;99.90
35523;DHT22;61478;50.820;4.330;2023-04-10T05:53:01;10.80;99.90
35523;DHT22;61478;50.820;4.330;2023-04-10T05:55:30;10.80;99.90
35523;DHT22;61478;50.820;4.330;2023-04-10T05:57:56;10.80;99.90
35523;DHT22;61478;50.820;4.330;2023-04-10T06:00:22;10.70;99.90
35523;DHT22;61478;50.820;4.330;2023-04-10T06:02:48;10.80;99.90
35523;DHT22;61478;50.820;4.330;2023-04-10T06:05:13;10.80;99.90
35523;DHT22;61478;50.820;4.330;2023-04-10T06:07:40;10.80;99.90
35523;DHT22;61478;50.820;4.330;2023-04-10T06:10:06;10.80;99.90
35523;DHT22;61478;50.820;4.330;2023-04-10T06:12:33;10.80;99.90
35523;DHT22;61478;50.820;4.330;2023-04-10T06:14:59;10.80;99.90
35523;DHT22;61478;50.820;4.330;2023-04-10T06:17:25;10.80;99.90
35523;DHT22;61478;50.820;4.330;2023-04-10T06:19:52;10.90;99.90
35523;DHT22;61478;50.820;4.330;2023-04-10T06:22:18;11.00;99.90
35523;DHT22;61478;50.820;4.330;2023-04-10T06:24:44;10.90;99.90
35523;DHT22;61478;50.820;4.330;2023-04-10T06:27:10;10.80;99.90
35523;DHT22;61478;50.820;4.330;2023-04-10T06:29:36;10.90;99.90
35523;DHT22;61478;50.820;4.330;2023-04-10T06:32:02;10.90;99.90
35523;DHT22;61478;50.820;4.330;2023-04-10T06:34:28;10.90;99.90
35523;DHT22;61478;50.820;4.330;2023-04-10T06:36:54;11.00;99.90
35523;DHT22;61478;50.820;4.330;2023-04-10T06:39:20;10.90;99.90
35523;DHT22;61478;50.820;4.330;2023-04-10T06:41:46;11.00;99.90
35523;DHT22;61478;50.820;4.330;2023-04-10T06:44:11;11.00;99.90
35523;DHT22;61478;50.820;4.330;2023-04-10T06:46:37;11.10;99.90
35523;DHT22;61478;50.820;4.330;2023-04-10T06:49:03;11.00;99.90
35523;DHT22;61478;50.820;4.330;2023-04-10T06:51:29;11.00;99.90
35523;DHT22;61478;50.820;4.330;2023-04-10T06:53:56;11.10;99.90
35523;DHT22;61478;50.820;4.330;2023-04-10T06:56:21;11.10;99.90
35523;DHT22;61478;50.820;4.330;2023-04-10T06:58:47;11.10;99.90
35523;DHT22;61478;50.820;4.330;2023-04-10T07:01:13;11.10;99.90
35523;DHT22;61478;50.820;4.330;2023-04-10T07:03:42;11.00;99.90
35523;DHT22;61478;50.820;4.330;2023-04-10T07:06:09;11.00;99.90
35523;DHT22;61478;50.820;4.330;2023-04-10T07:08:35;11.10;99.90
35523;DHT22;61478;50.820;4.330;2023-04-10T07:11:01;11.20;99.90
35523;DHT22;61478;50.820;4.330;2023-04-10T07:13:26;11.20;99.90
35523;DHT22;61478;50.820;4.330;2023-04-10T07:15:52;11.20;99.90
35523;DHT22;61478;50.820;4.330;2023-04-10T07:18:18;11.20;99.90
35523;DHT22;61478;50.820;4.330;2023-04-10T07:20:44;11.30;99.90
35523;DHT22;61478;50.820;4.330;2023-04-10T07:23:10;11.30;99.90
35523;DHT22;61478;50.820;4.330;2023-04-10T07:25:36;11.40;99.90
35523;DHT22;61478;50.820;4.330;2023-04-10T07:28:02;11.50;99.90
35523;DHT22;61478;50.820;4.330;2023-04-10T07:30:28;11.50;99.90
35523;DHT22;61478;50.820;4.330;2023-04-10T07:32:53;11.60;99.90
35523;DHT22;61478;50.820;4.330;2023-04-10T07:35:19;11.60;99.90
35523;DHT22;61478;50.820;4.330;2023-04-10T07:37:45;11.60;99.90
35523;DHT22;61478;50.820;4.330;2023-04-10T07:40:16;11.60;99.90
35523;DHT22;61478;50.820;4.330;2023-04-10T07:42:41;11.70;99.90
35523;DHT22;61478;50.820;4.330;2023-04-10T07:45:07;11.80;99.90
35523;DHT22;61478;50.820;4.330;2023-04-10T07:47:33;11.80;99.90
35523;DHT22;61478;50.820;4.330;2023-04-10T07:49:59;11.80;99.90
35523;DHT22;61478;50.820;4.330;2023-04-10T07:52:25;11.70;99.90
35523;DHT22;61478;50.820;4.330;2023-04-10T07:54:51;11.70;99.90
35523;DHT22;61478;50.820;4.330;2023-04-10T07:57:17;11.80;99.90
35523;DHT22;61478;50.820;4.330;2023-04-10T07:59:42;11.80;99.90
35523;DHT22;61478;50.820;4.330;2023-04-10T08:02:08;11.80;99.90
35523;DHT22;61478;50.820;4.330;2023-04-10T08:04:34;11.90;99.90
35523;DHT22;61478;50.820;4.330;2023-04-10T08:07:00;12.00;99.90
35523;DHT22;61478;50.820;4.330;2023-04-10T08:09:26;12.00;99.90
35523;DHT22;61478;50.820;4.330;2023-04-10T08:11:52;12.20;99.90
35523;DHT22;61478;50.820;4.330;2023-04-10T08:14:17;12.30;99.90
35523;DHT22;61478;50.820;4.330;2023-04-10T08:16:43;12.40;99.90
35523;DHT22;61478;50.820;4.330;2023-04-10T08:19:09;12.30;99.90
35523;DHT22;61478;50.820;4.330;2023-04-10T08:21:35;12.40;99.90
35523;DHT22;61478;50.820;4.330;2023-04-10T08:24:02;12.40;99.90
35523;DHT22;61478;50.820;4.330;2023-04-10T08:26:28;12.30;99.90
35523;DHT22;61478;50.820;4.330;2023-04-10T08:28:56;12.40;99.90
35523;DHT22;61478;50.820;4.330;2023-04-10T08:31:23;12.50;99.90
35523;DHT22;61478;50.820;4.330;2023-04-10T08:33:50;12.50;99.90
35523;DHT22;61478;50.820;4.330;2023-04-10T08:36:16;12.60;99.90
35523;DHT22;61478;50.820;4.330;2023-04-10T08:38:43;12.70;99.90
35523;DHT22;61478;50.820;4.330;2023-04-10T08:41:14;12.80;99.90
35523;DHT22;61478;50.820;4.330;2023-04-10T08:43:40;12.90;99.90
35523;DHT22;61478;50.820;4.330;2023-04-10T08:46:06;13.00;99.90
35523;DHT22;61478;50.820;4.330;2023-04-10T08:48:42;13.00;99.90
35523;DHT22;61478;50.820;4.330;2023-04-10T08:51:19;13.00;99.90
35523;DHT22;61478;50.820;4.330;2023-04-10T08:53:49;13.00;99.90
35523;DHT22;61478;50.820;4.330;2023-04-10T08:56:17;13.00;99.90
35523;DHT22;61478;50.820;4.330;2023-04-10T08:58:43;13.00;99.90
35523;DHT22;61478;50.820;4.330;2023-04-10T09:01:09;13.10;99.90
35523;DHT22;61478;50.820;4.330;2023-04-10T09:03:36;13.00;99.90
35523;DHT22;61478;50.820;4.330;2023-04-10T09:06:03;13.10;99.90
35523;DHT22;61478;50.820;4.330;2023-04-10T09:08:30;13.10;99.90
35523;DHT22;61478;50.820;4.330;2023-04-10T09:10:56;13.30;99.90
35523;DHT22;61478;50.820;4.330;2023-04-10T09:13:38;13.40;99.90
35523;DHT22;61478;50.820;4.330;2023-04-10T09:16:05;13.60;99.90
35523;DHT22;61478;50.820;4.330;2023-04-10T09:18:47;13.60;99.90
35523;DHT22;61478;50.820;4.330;2023-04-10T09:21:18;13.60;99.90
35523;DHT22;61478;50.820;4.330;2023-04-10T09:23:46;13.70;99.90
35523;DHT22;61478;50.820;4.330;2023-04-10T09:26:29;13.80;99.90
35523;DHT22;61478;50.820;4.330;2023-04-10T09:29:03;13.90;99.90
35523;DHT22;61478;50.820;4.330;2023-04-10T09:31:37;14.00;99.90
35523;DHT22;61478;50.820;4.330;2023-04-10T09:34:13;14.20;99.90
35523;DHT22;61478;50.820;4.330;2023-04-10T09:36:54;14.20;99.90
35523;DHT22;61478;50.820;4.330;2023-04-10T09:39:21;14.20;99.90
35523;DHT22;61478;50.820;4.330;2023-04-10T09:41:52;14.20;99.90
35523;DHT22;61478;50.820;4.330;2023-04-10T09:46:56;14.30;99.90
35523;DHT22;61478;50.820;4.330;2023-04-10T09:49:22;14.40;99.90
35523;DHT22;61478;50.820;4.330;2023-04-10T09:51:48;14.50;99.90
35523;DHT22;61478;50.820;4.330;2023-04-10T09:54:14;14.60;99.90
35523;DHT22;61478;50.820;4.330;2023-04-10T09:56:44;14.70;99.90
35523;DHT22;61478;50.820;4.330;2023-04-10T09:59:13;14.90;99.90
35523;DHT22;61478;50.820;4.330;2023-04-10T10:01:40;15.00;99.90
35523;DHT22;61478;50.820;4.330;2023-04-10T10:04:07;15.10;99.90
35523;DHT22;61478;50.820;4.330;2023-04-10T10:06:33;15.30;99.90
35523;DHT22;61478;50.820;4.330;2023-04-10T10:09:01;15.40;99.90
35523;DHT22;61478;50.820;4.330;2023-04-10T10:11:32;15.50;99.90
35523;DHT22;61478;50.820;4.330;2023-04-10T10:13:59;15.80;99.90
35523;DHT22;61478;50.820;4.330;2023-04-10T10:16:36;16.10;99.90
35523;DHT22;61478;50.820;4.330;2023-04-10T10:19:08;16.40;99.90
35523;DHT22;61478;50.820;4.330;2023-04-10T10:21:37;16.70;99.90
35523;DHT22;61478;50.820;4.330;2023-04-10T10:24:07;16.90;99.90
35523;DHT22;61478;50.820;4.330;2023-04-10T10:26:36;16.90;99.90
35523;DHT22;61478;50.820;4.330;2023-04-10T10:29:05;16.90;99.90
35523;DHT22;61478;50.820;4.330;2023-04-10T10:31:32;17.00;99.90
35523;DHT22;61478;50.820;4.330;2023-04-10T10:34:00;17.20;99.90
35523;DHT22;61478;50.820;4.330;2023-04-10T10:36:32;17.10;99.90
35523;DHT22;61478;50.820;4.330;2023-04-10T10:41:45;17.00;99.90
35523;DHT22;61478;50.820;4.330;2023-04-10T10:44:35;17.10;99.90
35523;DHT22;61478;50.820;4.330;2023-04-10T10:47:09;17.20;99.90
35523;DHT22;61478;50.820;4.330;2023-04-10T10:49:55;17.10;99.90
35523;DHT22;61478;50.820;4.330;2023-04-10T10:52:44;16.80;99.90
35523;DHT22;61478;50.820;4.330;2023-04-10T11:05:51;16.80;99.90
35523;DHT22;61478;50.820;4.330;2023-04-10T11:08:40;16.80;99.90
35523;DHT22;61478;50.820;4.330;2023-04-10T11:11:16;16.80;99.90
35523;DHT22;61478;50.820;4.330;2023-04-10T11:19:05;16.70;99.90
35523;DHT22;61478;50.820;4.330;2023-04-10T11:21:33;16.80;99.90
35523;DHT22;61478;50.820;4.330;2023-04-10T11:24:00;16.90;99.90
35523;DHT22;61478;50.820;4.330;2023-04-10T11:31:34;16.90;99.90
35523;DHT22;61478;50.820;4.330;2023-04-10T11:34:04;16.80;99.90
35523;DHT22;61478;50.820;4.330;2023-04-10T11:36:31;16.90;99.90
35523;DHT22;61478;50.820;4.330;2023-04-10T11:39:03;16.90;99.90
35523;DHT22;61478;50.820;4.330;2023-04-10T11:41:44;16.90;99.90
35523;DHT22;61478;50.820;4.330;2023-04-10T11:44:13;16.90;99.90
35523;DHT22;61478;50.820;4.330;2023-04-10T11:46:44;16.90;99.90
35523;DHT22;61478;50.820;4.330;2023-04-10T11:49:23;16.80;99.90
35523;DHT22;61478;50.820;4.330;2023-04-10T11:51:51;16.80;99.90
35523;DHT22;61478;50.820;4.330;2023-04-10T11:54:21;16.90;99.90
35523;DHT22;61478;50.820;4.330;2023-04-10T11:57:04;16.90;99.90
35523;DHT22;61478;50.820;4.330;2023-04-10T11:59:32;17.00;99.90
35523;DHT22;61478;50.820;4.330;2023-04-10T12:02:06;16.90;99.90
35523;DHT22;61478;50.820;4.330;2023-04-10T12:04:33;16.90;99.90
35523;DHT22;61478;50.820;4.330;2023-04-10T12:06:59;16.90;99.90
35523;DHT22;61478;50.820;4.330;2023-04-10T12:09:25;16.90;99.90
35523;DHT22;61478;50.820;4.330;2023-04-10T12:11:58;17.00;99.90
35523;DHT22;61478;50.820;4.330;2023-04-10T12:14:30;17.00;99.90
35523;DHT22;61478;50.820;4.330;2023-04-10T12:17:00;16.90;99.90
35523;DHT22;61478;50.820;4.330;2023-04-10T12:19:26;16.90;99.90
35523;DHT22;61478;50.820;4.330;2023-04-10T12:21:53;17.00;99.90
35523;DHT22;61478;50.820;4.330;2023-04-10T12:24:45;17.00;99.90
35523;DHT22;61478;50.820;4.330;2023-04-10T12:27:16;17.00;99.90
35523;DHT22;61478;50.820;4.330;2023-04-10T12:29:43;16.90;99.90
35523;DHT22;61478;50.820;4.330;2023-04-10T12:32:09;16.90;99.90
35523;DHT22;61478;50.820;4.330;2023-04-10T12:34:38;16.80;99.90
35523;DHT22;61478;50.820;4.330;2023-04-10T12:37:04;16.80;99.90
35523;DHT22;61478;50.820;4.330;2023-04-10T12:39:30;16.70;99.90
35523;DHT22;61478;50.820;4.330;2023-04-10T12:42:19;16.70;99.90
35523;DHT22;61478;50.820;4.330;2023-04-10T12:45:00;16.60;99.90
35523;DHT22;61478;50.820;4.330;2023-04-10T12:47:27;16.50;99.90
35523;DHT22;61478;50.820;4.330;2023-04-10T12:50:07;16.50;99.90
35523;DHT22;61478;50.820;4.330;2023-04-10T12:52:34;16.30;99.90
35523;DHT22;61478;50.820;4.330;2023-04-10T12:55:20;16.20;99.90
35523;DHT22;61478;50.820;4.330;2023-04-10T12:57:47;16.10;99.90
35523;DHT22;61478;50.820;4.330;2023-04-10T13:00:15;16.00;99.90
35523;DHT22;61478;50.820;4.330;2023-04-10T13:02:41;15.90;99.90
35523;DHT22;61478;50.820;4.330;2023-04-10T13:05:08;15.90;99.90
35523;DHT22;61478;50.820;4.330;2023-04-10T13:07:34;15.90;99.90
35523;DHT22;61478;50.820;4.330;2023-04-10T13:10:04;15.80;99.90
35523;DHT22;61478;50.820;4.330;2023-04-10T13:12:30;15.80;99.90
35523;DHT22;61478;50.820;4.330;2023-04-10T13:15:00;15.80;99.90
35523;DHT22;61478;50.820;4.330;2023-04-10T13:17:27;15.80;99.90
35523;DHT22;61478;50.820;4.330;2023-04-10T13:19:53;15.90;99.90
35523;DHT22;61478;50.820;4.330;2023-04-10T13:22:19;15.90;99.90
35523;DHT22;61478;50.820;4.330;2023-04-10T13:24:45;15.90;99.90
35523;DHT22;61478;50.820;4.330;2023-04-10T13:27:11;15.90;99.90
35523;DHT22;61478;50.820;4.330;2023-04-10T13:29:41;15.90;99.90
35523;DHT22;61478;50.820;4.330;2023-04-10T13:32:07;15.90;99.90
35523;DHT22;61478;50.820;4.330;2023-04-10T13:34:33;15.90;99.90
35523;DHT22;61478;50.820;4.330;2023-04-10T13:37:00;15.90;99.90
35523;DHT22;61478;50.820;4.330;2023-04-10T13:39:27;16.00;99.90
35523;DHT22;61478;50.820;4.330;2023-04-10T13:41:53;16.10;99.90
35523;DHT22;61478;50.820;4.330;2023-04-10T13:44:19;16.20;99.90
35523;DHT22;61478;50.820;4.330;2023-04-10T13:46:45;16.20;99.90
35523;DHT22;61478;50.820;4.330;2023-04-10T13:49:11;16.30;99.90
35523;DHT22;61478;50.820;4.330;2023-04-10T13:51:41;16.40;99.90
35523;DHT22;61478;50.820;4.330;2023-04-10T13:54:07;16.40;99.90
35523;DHT22;61478;50.820;4.330;2023-04-10T13:56:34;16.40;99.90
35523;DHT22;61478;50.820;4.330;2023-04-10T13:59:01;16.50;99.90
35523;DHT22;61478;50.820;4.330;2023-04-10T14:01:27;16.60;99.90
35523;DHT22;61478;50.820;4.330;2023-04-10T14:03:52;16.60;99.90
35523;DHT22;61478;50.820;4.330;2023-04-10T14:06:18;16.60;99.90
35523;DHT22;61478;50.820;4.330;2023-04-10T14:08:44;16.70;99.90
35523;DHT22;61478;50.820;4.330;2023-04-10T14:11:10;16.70;99.90
35523;DHT22;61478;50.820;4.330;2023-04-10T14:13:36;16.80;99.90
35523;DHT22;61478;50.820;4.330;2023-04-10T14:16:02;16.80;99.90
35523;DHT22;61478;50.820;4.330;2023-04-10T14:18:28;16.70;99.90
35523;DHT22;61478;50.820;4.330;2023-04-10T14:20:54;16.80;99.90
35523;DHT22;61478;50.820;4.330;2023-04-10T14:23:20;16.70;99.90
35523;DHT22;61478;50.820;4.330;2023-04-10T14:25:48;16.70;99.90
35523;DHT22;61478;50.820;4.330;2023-04-10T14:28:14;16.70;99.90
35523;DHT22;61478;50.820;4.330;2023-04-10T14:30:46;16.60;99.90
35523;DHT22;61478;50.820;4.330;2023-04-10T14:33:18;16.60;99.90
35523;DHT22;61478;50.820;4.330;2023-04-10T14:35:45;16.60;99.90
35523;DHT22;61478;50.820;4.330;2023-04-10T14:38:11;16.50;99.90
35523;DHT22;61478;50.820;4.330;2023-04-10T14:40:37;16.30;99.90
35523;DHT22;61478;50.820;4.330;2023-04-10T14:43:05;16.10;99.90
35523;DHT22;61478;50.820;4.330;2023-04-10T14:45:32;15.90;99.90
35523;DHT22;61478;50.820;4.330;2023-04-10T14:47:58;15.60;99.90
35523;DHT22;61478;50.820;4.330;2023-04-10T14:50:23;15.40;99.90
35523;DHT22;61478;50.820;4.330;2023-04-10T14:52:52;15.20;99.90
35523;DHT22;61478;50.820;4.330;2023-04-10T14:55:18;15.00;99.90
35523;DHT22;61478;50.820;4.330;2023-04-10T14:57:44;14.90;99.90
35523;DHT22;61478;50.820;4.330;2023-04-10T15:00:10;14.80;99.90
35523;DHT22;61478;50.820;4.330;2023-04-10T15:02:36;14.70;99.90
35523;DHT22;61478;50.820;4.330;2023-04-10T15:05:03;14.60;99.90
35523;DHT22;61478;50.820;4.330;2023-04-10T15:07:29;14.60;99.90
35523;DHT22;61478;50.820;4.330;2023-04-10T15:09:58;14.50;99.90
35523;DHT22;61478;50.820;4.330;2023-04-10T15:12:24;14.40;99.90
35523;DHT22;61478;50.820;4.330;2023-04-10T15:14:50;14.40;99.90
35523;DHT22;61478;50.820;4.330;2023-04-10T15:17:16;14.50;99.90
35523;DHT22;61478;50.820;4.330;2023-04-10T15:19:42;14.40;99.90
35523;DHT22;61478;50.820;4.330;2023-04-10T15:22:08;14.40;99.90
35523;DHT22;61478;50.820;4.330;2023-04-10T15:24:34;14.40;99.90
35523;DHT22;61478;50.820;4.330;2023-04-10T15:27:00;14.30;99.90
35523;DHT22;61478;50.820;4.330;2023-04-10T15:29:26;14.20;99.90
35523;DHT22;61478;50.820;4.330;2023-04-10T15:31:52;14.20;99.90
35523;DHT22;61478;50.820;4.330;2023-04-10T15:34:18;14.00;99.90
35523;DHT22;61478;50.820;4.330;2023-04-10T15:36:44;13.90;99.90
35523;DHT22;61478;50.820;4.330;2023-04-10T15:39:10;13.70;99.90
35523;DHT22;61478;50.820;4.330;2023-04-10T15:41:36;13.60;99.90
35523;DHT22;61478;50.820;4.330;2023-04-10T15:44:02;13.50;99.90
35523;DHT22;61478;50.820;4.330;2023-04-10T15:46:28;13.40;99.90
35523;DHT22;61478;50.820;4.330;2023-04-10T15:48:57;13.40;99.90
35523;DHT22;61478;50.820;4.330;2023-04-10T15:51:24;13.20;99.90
35523;DHT22;61478;50.820;4.330;2023-04-10T15:53:51;13.10;99.90
35523;DHT22;61478;50.820;4.330;2023-04-10T15:56:17;13.00;99.90
35523;DHT22;61478;50.820;4.330;2023-04-10T15:58:43;12.90;99.90
35523;DHT22;61478;50.820;4.330;2023-04-10T16:01:09;12.80;99.90
35523;DHT22;61478;50.820;4.330;2023-04-10T16:03:34;12.90;99.90
35523;DHT22;61478;50.820;4.330;2023-04-10T16:06:00;12.80;99.90
35523;DHT22;61478;50.820;4.330;2023-04-10T16:08:27;12.80;99.90
35523;DHT22;61478;50.820;4.330;2023-04-10T16:10:53;12.80;99.90
35523;DHT22;61478;50.820;4.330;2023-04-10T16:13:20;12.60;99.90
35523;DHT22;61478;50.820;4.330;2023-04-10T16:15:46;12.60;99.90